Time;durP1;ratioP1;P1;durP2;ratioP2;P2;SDS_P1;SDS_P2;PMS_P1;PMS_P2;Temp;Humidity;BMP_temperature;BMP_pressure;BME280_temperature;BME280_humidity;BME280_pressure;Samples;Min_cycle;Max_cycle;Signal;HPM_P1;HPM_P2
2021/07/05 00:00:12;;;;;;;1.58;1.02;;;;;;;15.13;81.08;92754.72;5011817;28;20053;-84
2021/07/05 00:02:39;;;;;;;2.80;1.40;;;;;;;15.14;81.18;92745.94;5011818;28;20049;-84
2021/07/05 00:05:07;;;;;;;2.03;1.50;;;;;;;15.13;81.55;92742.56;5011737;28;20409;-83
2021/07/05 00:07:34;;;;;;;1.58;1.20;;;;;;;15.14;82.15;92743.34;5011798;28;20115;-83
2021/07/05 00:10:01;;;;;;;2.75;2.20;;;;;;;15.15;82.16;92744.91;5011657;28;20100;-83
2021/07/05 00:12:29;;;;;;;1.80;1.20;;;;;;;15.16;82.41;92751.63;5011699;28;20046;-84
2021/07/05 00:14:56;;;;;;;1.65;1.25;;;;;;;15.17;82.17;92743.63;5011530;28;20517;-83
2021/07/05 00:17:23;;;;;;;1.55;1.25;;;;;;;15.13;82.66;92736.63;5011864;28;20053;-83
2021/07/05 00:19:50;;;;;;;2.53;1.58;;;;;;;15.18;82.21;92739.25;5011462;28;20053;-83
2021/07/05 00:22:17;;;;;;;2.40;1.63;;;;;;;15.18;82.31;92736.66;5011601;28;20054;-83
2021/07/05 00:24:44;;;;;;;1.30;0.98;;;;;;;15.14;83.06;92731.19;5011463;28;20056;-84
2021/07/05 00:27:10;;;;;;;2.03;1.10;;;;;;;15.10;83.07;92735.31;5011379;28;20066;-83
2021/07/05 00:29:38;;;;;;;2.22;1.02;;;;;;;15.10;83.14;92732.72;5011236;28;20395;-83
2021/07/05 00:32:06;;;;;;;2.70;1.50;;;;;;;15.14;83.23;92728.59;5011532;28;20081;-83
2021/07/05 00:34:33;;;;;;;2.15;1.25;;;;;;;15.14;83.63;92722.66;5011402;28;20046;-83
2021/07/05 00:36:59;;;;;;;2.72;1.83;;;;;;;15.22;83.20;92724.75;5011317;28;20506;-83
2021/07/05 00:39:26;;;;;;;1.95;1.05;;;;;;;15.17;82.77;92707.41;5011186;28;20054;-83
2021/07/05 00:41:53;;;;;;;1.92;1.50;;;;;;;15.36;82.67;92722.50;5011101;28;20053;-83
2021/07/05 00:44:20;;;;;;;3.53;1.45;;;;;;;15.36;82.62;92720.72;5011331;28;20050;-83
2021/07/05 00:46:48;;;;;;;2.55;1.58;;;;;;;15.33;82.83;92725.59;5011141;28;20054;-83
2021/07/05 00:49:15;;;;;;;1.77;1.40;;;;;;;15.33;82.66;92723.03;5011139;28;21084;-83
2021/07/05 00:51:42;;;;;;;2.92;1.75;;;;;;;15.29;82.61;92719.38;5011006;28;20092;-83
2021/07/05 00:54:09;;;;;;;2.65;1.85;;;;;;;15.30;82.70;92721.72;5011043;28;20049;-83
2021/07/05 00:56:36;;;;;;;1.92;1.13;;;;;;;15.20;83.43;92708.72;5010911;28;20050;-83
2021/07/05 00:59:05;;;;;;;3.17;1.67;;;;;;;15.36;83.87;92731.06;5011099;28;20510;-83
2021/07/05 01:01:32;;;;;;;3.15;2.10;;;;;;;15.26;84.36;92723.25;5010989;28;20505;-83
2021/07/05 01:04:00;;;;;;;2.38;1.70;;;;;;;15.29;84.52;92730.50;5010929;28;20049;-84
2021/07/05 01:06:28;;;;;;;1.80;1.27;;;;;;;15.38;83.54;92732.63;5010918;28;20100;-84
2021/07/05 01:08:55;;;;;;;3.10;2.00;;;;;;;15.37;83.57;92721.50;5010787;28;20502;-85
2021/07/05 01:11:22;;;;;;;3.35;1.92;;;;;;;15.31;84.14;92722.47;5011022;28;20062;-83
2021/07/05 01:13:49;;;;;;;2.85;1.38;;;;;;;15.39;84.28;92729.78;5011029;28;20054;-84
2021/07/05 01:16:16;;;;;;;3.58;2.58;;;;;;;15.39;84.79;92718.63;5010990;28;20080;-83
2021/07/05 01:18:43;;;;;;;2.95;1.52;;;;;;;15.34;85.71;92729.75;5010723;28;20046;-83
2021/07/05 01:21:11;;;;;;;1.80;1.15;;;;;;;15.26;85.86;92723.25;5010925;28;20465;-83
2021/07/05 01:23:38;;;;;;;2.13;1.73;;;;;;;15.33;85.64;92721.19;5010725;28;20049;-83
2021/07/05 01:26:05;;;;;;;2.60;1.77;;;;;;;15.36;85.12;92719.91;5010733;28;20050;-83
2021/07/05 01:28:32;;;;;;;3.03;1.48;;;;;;;15.42;84.20;92712.97;5010886;28;20046;-84
2021/07/05 01:30:59;;;;;;;2.90;1.85;;;;;;;15.48;83.75;92705.00;5010589;28;20062;-83
2021/07/05 01:33:26;;;;;;;2.00;1.80;;;;;;;15.53;83.81;92716.38;5010606;28;20042;-83
2021/07/05 01:35:53;;;;;;;1.65;1.27;;;;;;;15.58;83.75;92709.41;5010723;28;20073;-83
2021/07/05 01:38:23;;;;;;;1.63;0.95;;;;;;;15.58;83.37;92706.84;5010607;28;20050;-84
2021/07/05 01:40:55;;;;;;;2.15;1.50;;;;;;;15.65;83.33;92714.38;5010801;28;20054;-83
2021/07/05 01:43:22;;;;;;;2.55;1.70;;;;;;;15.48;84.11;92686.06;5010556;28;20133;-83
2021/07/05 01:45:49;;;;;;;2.45;1.70;;;;;;;15.63;83.48;92708.66;5010552;28;20053;-84
2021/07/05 01:48:16;;;;;;;2.80;2.13;;;;;;;15.68;83.35;92707.88;5010560;28;20053;-84
2021/07/05 01:50:43;;;;;;;2.30;1.20;;;;;;;15.69;83.70;92696.53;5010318;28;20108;-83
2021/07/05 01:53:10;;;;;;;3.33;2.42;;;;;;;15.72;82.93;92704.56;5014145;28;20052;-83
2021/07/05 01:55:39;;;;;;;2.88;1.52;;;;;;;15.77;83.14;92694.22;5014363;28;20054;-83
2021/07/05 01:58:08;;;;;;;3.15;1.58;;;;;;;15.78;82.35;92694.97;5014311;28;20053;-84
2021/07/05 02:00:37;;;;;;;2.63;1.65;;;;;;;15.62;82.99;92678.63;5014109;28;20057;-83
2021/07/05 02:03:05;;;;;;;2.45;1.70;;;;;;;15.82;83.17;92698.63;5013998;28;20057;-84
2021/07/05 02:05:31;;;;;;;2.40;1.67;;;;;;;15.77;83.34;92693.44;5013960;28;20054;-83
2021/07/05 02:07:59;;;;;;;1.77;1.35;;;;;;;15.77;83.38;92689.03;5014244;28;20489;-84
2021/07/05 02:10:29;;;;;;;2.75;1.52;;;;;;;15.70;83.45;92688.47;5014172;28;20046;-84
2021/07/05 02:12:59;;;;;;;1.95;1.63;;;;;;;15.76;83.83;92695.25;5014030;28;20050;-84
2021/07/05 02:15:26;;;;;;;2.42;1.42;;;;;;;15.80;83.81;92690.34;5013788;28;20050;-84
2021/07/05 02:17:54;;;;;;;2.95;1.73;;;;;;;15.81;83.33;92696.28;5013625;28;20061;-84
2021/07/05 02:20:24;;;;;;;2.72;1.63;;;;;;;15.33;83.12;92627.28;5013690;28;20406;-83
2021/07/05 02:22:51;;;;;;;2.30;1.50;;;;;;;15.74;83.56;92689.53;5013594;28;20486;-84
2021/07/05 02:25:20;;;;;;;3.33;1.63;;;;;;;15.74;83.89;92699.88;5013641;28;20053;-83
2021/07/05 02:27:48;;;;;;;2.30;2.00;;;;;;;15.69;84.02;92692.09;5013460;28;20062;-83
2021/07/05 02:30:19;;;;;;;2.85;1.55;;;;;;;15.76;84.16;92691.88;5013426;28;20054;-83
2021/07/05 02:32:46;;;;;;;2.20;1.40;;;;;;;15.77;84.36;92699.41;5013766;28;20046;-83
2021/07/05 02:35:15;;;;;;;2.05;1.42;;;;;;;15.74;84.70;92689.53;5013374;28;20089;-84
2021/07/05 02:37:44;;;;;;;1.67;1.23;;;;;;;15.79;84.84;92695.78;5013463;28;20068;-83
2021/07/05 02:40:14;;;;;;;3.20;2.53;;;;;;;15.76;84.68;92689.28;5013445;28;20057;-84
2021/07/05 02:42:43;;;;;;;1.70;1.05;;;;;;;15.81;84.13;92686.72;5013094;28;20049;-86
2021/07/05 02:45:13;;;;;;;3.88;1.55;;;;;;;15.66;84.73;92661.56;5013230;28;20046;-84
2021/07/05 02:47:41;;;;;;;2.42;1.52;;;;;;;15.83;84.62;92682.03;5013438;28;20124;-84
2021/07/05 02:50:10;;;;;;;2.85;1.85;;;;;;;15.81;85.37;92689.31;5013172;28;20054;-84
2021/07/05 02:52:39;;;;;;;2.63;1.90;;;;;;;15.72;85.97;92683.06;5013205;28;20046;-84
2021/07/05 02:55:09;;;;;;;2.17;1.50;;;;;;;15.75;86.28;92685.91;5013011;28;20544;-83
2021/07/05 02:57:36;;;;;;;2.50;1.38;;;;;;;15.77;86.62;92696.81;5012927;28;20490;-83
2021/07/05 03:00:11;;;;;;;2.45;1.77;;;;;;;15.71;86.40;92684.88;5012951;28;20046;-82
2021/07/05 03:02:38;;;;;;;2.90;1.67;;;;;;;15.81;85.83;92693.69;5001783;28;20446;-82
2021/07/05 03:05:09;;;;;;;1.80;1.30;;;;;;;15.76;86.32;92700.44;5011774;28;20080;-82
2021/07/05 03:07:36;;;;;;;5.13;2.05;;;;;;;15.77;85.42;92701.97;5012697;28;20050;-83
2021/07/05 03:10:06;;;;;;;2.63;1.92;;;;;;;15.84;85.62;92693.19;5012586;28;20042;-83
2021/07/05 03:12:32;;;;;;;3.35;1.83;;;;;;;15.89;85.41;92688.78;5012925;28;20053;-83
2021/07/05 03:14:59;;;;;;;3.90;2.55;;;;;;;15.80;85.41;92672.22;5012699;28;20058;-83
2021/07/05 03:17:26;;;;;;;2.05;1.80;;;;;;;16.02;85.14;92694.56;5012802;28;20128;-83
2021/07/05 03:19:53;;;;;;;2.88;1.98;;;;;;;16.02;84.78;92686.81;5012570;28;20429;-83
2021/07/05 03:22:21;;;;;;;2.20;1.23;;;;;;;16.06;84.48;92676.69;5012413;28;20414;-82
2021/07/05 03:24:48;;;;;;;4.38;1.90;;;;;;;16.12;84.35;92684.19;5012501;28;20065;-83
2021/07/05 03:27:16;;;;;;;2.15;1.35;;;;;;;16.20;84.69;92685.50;5012338;28;20561;-82
2021/07/05 03:29:43;;;;;;;2.35;1.33;;;;;;;16.15;83.91;92675.13;5012384;28;20049;-84
2021/07/05 03:32:10;;;;;;;2.33;1.63;;;;;;;16.33;84.05;92704.97;5012271;28;20061;-83
2021/07/05 03:34:37;;;;;;;2.33;2.08;;;;;;;16.37;84.91;92692.28;5012271;28;20046;-83
2021/07/05 03:37:04;;;;;;;4.43;2.08;;;;;;;16.31;83.56;92675.94;5012161;28;20108;-83
2021/07/05 03:39:33;;;;;;;7.22;2.22;;;;;;;16.57;83.11;92696.69;5012216;28;20050;-83
2021/07/05 03:42:00;;;;;;;2.75;2.00;;;;;;;16.63;84.04;92689.69;5012123;28;20046;-82
2021/07/05 03:44:27;;;;;;;2.42;1.48;;;;;;;16.55;84.64;92672.84;5012065;28;20104;-82
2021/07/05 03:46:54;;;;;;;3.15;2.55;;;;;;;16.74;84.01;92687.88;5012204;28;20046;-82
2021/07/05 03:49:21;;;;;;;20.13;2.72;;;;;;;16.79;82.98;92677.50;5011960;28;20061;-82
2021/07/05 03:51:49;;;;;;;2.28;1.55;;;;;;;16.85;81.88;92689.41;5012219;28;20061;-82
2021/07/05 03:54:16;;;;;;;1.73;1.35;;;;;;;16.77;84.30;92689.94;5012010;28;20049;-83
2021/07/05 03:56:45;;;;;;;3.67;1.48;;;;;;;16.73;83.67;92692.28;5012034;28;20099;-82
2021/07/05 03:59:11;;;;;;;2.85;1.98;;;;;;;17.01;82.17;92692.00;5011979;28;20049;-83
2021/07/05 04:01:39;;;;;;;6.72;1.35;;;;;;;17.22;81.09;92685.00;5011901;28;20059;-82
2021/07/05 04:04:05;;;;;;;2.78;1.90;;;;;;;17.35;80.14;92687.00;5011818;28;20137;-83
2021/07/05 04:06:32;;;;;;;2.60;1.98;;;;;;;17.50;80.48;92683.59;5011881;28;20064;-83
2021/07/05 04:09:00;;;;;;;1.95;1.25;;;;;;;17.47;80.37;92680.75;5011764;28;21093;-83
2021/07/05 04:11:27;;;;;;;2.42;1.70;;;;;;;17.62;79.80;92679.91;5011661;28;20060;-83
2021/07/05 04:13:55;;;;;;;1.67;1.20;;;;;;;17.61;79.87;92675.75;5011442;28;20054;-83
2021/07/05 04:16:22;;;;;;;3.22;1.58;;;;;;;17.61;78.99;92676.53;5011495;28;20050;-83
2021/07/05 04:18:49;;;;;;;2.53;1.70;;;;;;;17.71;79.81;92675.72;5011583;28;20046;-83
2021/07/05 04:21:16;;;;;;;1.88;1.27;;;;;;;17.68;79.63;92655.47;5011632;28;20486;-82
2021/07/05 04:23:43;;;;;;;2.25;1.52;;;;;;;17.94;78.67;92664.94;5011508;28;20042;-84
2021/07/05 04:26:09;;;;;;;3.28;2.45;;;;;;;17.77;80.89;92651.28;5011353;28;20477;-83
2021/07/05 04:28:36;;;;;;;3.65;1.92;;;;;;;17.79;80.44;92658.81;5011507;28;20058;-83
2021/07/05 04:31:05;;;;;;;4.03;2.10;;;;;;;17.93;80.08;92664.19;5011218;28;20137;-83
2021/07/05 04:33:31;;;;;;;3.67;1.30;;;;;;;18.06;78.18;92664.63;5011488;28;20418;-82
2021/07/05 04:35:58;;;;;;;2.72;1.58;;;;;;;18.06;79.16;92665.44;5011502;28;20115;-82
2021/07/05 04:38:25;;;;;;;3.25;1.60;;;;;;;18.05;79.59;92656.03;5011255;28;20490;-83
2021/07/05 04:40:53;;;;;;;3.50;1.75;;;;;;;17.95;80.32;92643.13;5011224;28;20494;-83
2021/07/05 04:43:20;;;;;;;4.35;2.30;;;;;;;18.04;78.90;92646.69;5011306;28;20056;-83
2021/07/05 04:45:48;;;;;;;5.38;4.03;;;;;;;18.18;78.00;92659.13;5011090;28;20057;-83
2021/07/05 04:48:16;;;;;;;3.20;1.88;;;;;;;18.30;78.96;92660.31;5011374;28;20136;-82
2021/07/05 04:50:43;;;;;;;3.25;2.08;;;;;;;18.36;77.72;92661.06;5011003;28;20510;-83
2021/07/05 04:53:09;;;;;;;2.75;1.70;;;;;;;18.49;77.59;92666.69;5011148;28;20057;-82
2021/07/05 04:55:36;;;;;;;3.28;1.75;;;;;;;18.56;76.57;92664.53;5011041;28;20054;-83
2021/07/05 04:58:03;;;;;;;2.40;1.85;;;;;;;18.63;76.65;92667.63;5011073;28;20050;-84
2021/07/05 05:00:33;;;;;;;2.70;1.83;;;;;;;18.69;75.76;92663.16;5010951;28;20100;-83
2021/07/05 05:03:01;;;;;;;6.85;3.20;;;;;;;18.69;75.53;92670.94;5011200;28;20092;-83
2021/07/05 05:05:31;;;;;;;3.90;2.45;;;;;;;18.77;74.60;92674.78;5011011;28;20050;-82
2021/07/05 05:07:58;;;;;;;5.18;3.17;;;;;;;18.53;75.79;92665.09;5010900;28;20056;-83
2021/07/05 05:10:26;;;;;;;4.50;1.60;;;;;;;18.50;75.39;92676.03;5010950;28;20102;-83
2021/07/05 05:12:53;;;;;;;3.15;1.95;;;;;;;18.46;76.44;92675.81;5010685;28;20058;-84
2021/07/05 05:15:21;;;;;;;6.45;2.95;;;;;;;18.42;76.81;92669.59;5011077;28;20060;-84
2021/07/05 05:17:49;;;;;;;5.03;3.55;;;;;;;18.36;75.57;92673.28;5010837;28;20051;-83
2021/07/05 05:20:18;;;;;;;7.20;3.85;;;;;;;18.55;75.06;92673.41;5010976;28;20137;-83
2021/07/05 05:22:46;;;;;;;21.45;4.07;;;;;;;18.78;75.99;92678.94;5010881;28;20396;-83
2021/07/05 05:25:14;;;;;;;4.35;3.53;;;;;;;18.79;74.95;92683.88;5010604;28;20495;-83
2021/07/05 05:27:41;;;;;;;11.93;4.80;;;;;;;18.89;74.41;92690.81;5013804;28;20136;-83
2021/07/05 05:30:10;;;;;;;14.73;5.72;;;;;;;18.88;73.64;92678.84;5014917;28;20454;-83
2021/07/05 05:32:37;;;;;;;7.35;4.25;;;;;;;19.06;72.63;92676.63;5014937;28;20061;-83
2021/07/05 05:35:06;;;;;;;9.98;5.60;;;;;;;19.25;72.92;92683.75;5014611;28;20104;-84
2021/07/05 05:37:33;;;;;;;10.43;3.85;;;;;;;19.31;71.78;92680.81;5014557;28;20050;-83
2021/07/05 05:40:01;;;;;;;7.00;4.15;;;;;;;19.36;71.22;92680.00;5014459;28;20049;-84
2021/07/05 05:42:28;;;;;;;7.47;3.97;;;;;;;19.47;71.50;92672.81;5013501;28;20046;-83
2021/07/05 05:44:55;;;;;;;6.68;3.38;;;;;;;19.69;70.24;92672.31;5014344;28;20057;-83
2021/07/05 05:47:22;;;;;;;14.32;4.82;;;;;;;19.96;70.41;92670.97;5022753;28;20056;-83
2021/07/05 05:49:48;;;;;;;16.83;4.55;;;;;;;20.20;70.25;92666.72;5033085;28;20572;-83
2021/07/05 05:52:15;;;;;;;7.78;5.05;;;;;;;20.51;68.44;92666.28;5032502;28;20041;-82
2021/07/05 05:54:42;;;;;;;13.93;5.70;;;;;;;20.84;69.59;92666.28;5033552;28;20109;-82
2021/07/05 05:57:25;;;;;;;20.73;5.05;;;;;;;21.04;67.70;92669.59;5033311;28;20464;-83
2021/07/05 05:59:53;;;;;;;10.50;3.42;;;;;;;21.27;68.24;92667.09;5033894;28;20049;-83
2021/07/05 06:02:20;;;;;;;10.45;5.03;;;;;;;21.42;66.25;92669.44;5033950;28;20050;-84
2021/07/05 06:04:47;;;;;;;6.75;3.90;;;;;;;21.12;68.01;92673.38;5033663;28;20045;-84
2021/07/05 06:07:13;;;;;;;10.88;4.18;;;;;;;21.47;65.52;92671.97;5034069;28;20046;-82
2021/07/05 06:09:40;;;;;;;12.48;4.07;;;;;;;21.50;64.15;92675.81;5033653;28;20110;-82
2021/07/05 06:12:07;;;;;;;14.25;5.60;;;;;;;21.87;63.47;92660.22;5033737;28;20061;-82
2021/07/05 06:14:35;;;;;;;9.75;4.85;;;;;;;22.31;62.23;92673.66;5033661;28;20063;-84
2021/07/05 06:17:03;;;;;;;5.47;3.53;;;;;;;22.29;60.30;92665.34;5033567;28;20064;-83
2021/07/05 06:19:30;;;;;;;7.90;4.35;;;;;;;22.61;60.02;92671.44;5033428;28;20128;-83
2021/07/05 06:21:57;;;;;;;10.50;3.70;;;;;;;22.97;58.26;92677.66;5033776;28;20041;-83
2021/07/05 06:24:24;;;;;;;5.72;2.58;;;;;;;23.32;56.22;92675.22;5033653;28;20053;-83
2021/07/05 06:26:50;;;;;;;7.00;3.42;;;;;;;23.38;56.99;92667.22;5033374;28;20057;-84
2021/07/05 06:29:17;;;;;;;7.38;3.20;;;;;;;23.96;55.95;92662.72;5033280;28;20509;-82
2021/07/05 06:31:45;;;;;;;7.78;2.92;;;;;;;24.61;52.04;92654.25;5033029;28;20489;-84
2021/07/05 06:34:12;;;;;;;4.10;2.33;;;;;;;25.23;51.70;92664.66;5033151;28;20100;-83
2021/07/05 06:36:39;;;;;;;2.17;1.90;;;;;;;25.48;48.40;92654.31;5033438;28;20049;-82
2021/07/05 06:39:05;;;;;;;2.75;1.75;;;;;;;25.84;48.25;92653.09;5033229;28;20052;-81
2021/07/05 06:41:32;;;;;;;4.40;2.22;;;;;;;26.04;46.94;92656.03;5033126;28;20057;-82
2021/07/05 06:43:59;;;;;;;3.17;1.38;;;;;;;26.52;44.78;92645.31;5033063;28;20426;-81
2021/07/05 06:46:26;;;;;;;2.08;1.33;;;;;;;26.95;42.80;92640.75;5032956;28;20067;-82
2021/07/05 06:48:54;;;;;;;2.08;1.20;;;;;;;27.29;42.26;92633.53;5032874;28;20096;-83
2021/07/05 06:51:21;;;;;;;4.93;1.30;;;;;;;27.39;41.24;92627.03;5033051;28;20041;-84
2021/07/05 06:53:48;;;;;;;2.05;1.30;;;;;;;27.45;41.61;92627.59;5033030;28;20092;-81
2021/07/05 06:56:15;;;;;;;1.88;1.33;;;;;;;27.41;41.41;92624.84;5032888;28;20111;-81
2021/07/05 06:58:42;;;;;;;2.80;1.88;;;;;;;27.45;41.70;92622.31;5032817;28;20103;-82
2021/07/05 07:01:09;;;;;;;1.50;1.00;;;;;;;27.33;41.81;92609.91;5032704;28;20060;-81
2021/07/05 07:03:35;;;;;;;2.10;1.35;;;;;;;27.09;41.79;92603.53;5032739;28;20510;-81
2021/07/05 07:06:03;;;;;;;1.60;1.08;;;;;;;27.13;41.69;92620.22;5032890;28;20103;-81
2021/07/05 07:08:30;;;;;;;2.72;1.20;;;;;;;27.08;41.63;92621.19;5032448;28;20119;-81
2021/07/05 07:10:57;;;;;;;2.50;1.50;;;;;;;27.20;41.68;92617.81;5032517;28;20045;-82
2021/07/05 07:13:24;;;;;;;2.17;1.30;;;;;;;27.25;41.29;92608.16;5032448;28;20166;-82
2021/07/05 07:15:53;;;;;;;2.55;1.40;;;;;;;27.48;41.46;92619.00;5032400;28;20387;-81
2021/07/05 07:18:43;;;;;;;3.08;1.92;;;;;;;27.74;40.99;92620.56;5032372;28;20057;-81
2021/07/05 07:21:12;;;;;;;2.95;1.45;;;;;;;28.01;40.50;92615.66;5032228;28;20485;-82
2021/07/05 07:23:39;;;;;;;2.70;0.70;;;;;;;28.27;36.62;92617.13;5032278;28;20083;-83
2021/07/05 07:26:05;;;;;;;2.17;1.80;;;;;;;28.60;38.58;92615.34;5032077;28;20057;-81
2021/07/05 07:28:32;;;;;;;3.30;2.05;;;;;;;28.77;38.67;92615.03;5032199;28;20053;-81
2021/07/05 07:30:59;;;;;;;3.25;1.67;;;;;;;28.93;37.60;92620.34;5032736;28;20052;-81
2021/07/05 07:33:26;;;;;;;3.22;1.38;;;;;;;29.27;36.52;92614.75;5032193;28;20050;-83
2021/07/05 07:35:53;;;;;;;2.22;1.08;;;;;;;29.57;35.50;92618.84;5032153;28;20045;-83
2021/07/05 07:38:23;;;;;;;2.05;1.27;;;;;;;30.01;35.30;92615.22;5031966;28;20066;-82
2021/07/05 07:40:49;;;;;;;2.03;1.35;;;;;;;30.35;33.19;92620.81;5032345;28;20095;-82
2021/07/05 07:43:16;;;;;;;3.97;2.70;;;;;;;30.51;34.17;92612.03;5032169;28;20053;-81
2021/07/05 07:45:43;;;;;;;2.95;1.38;;;;;;;30.74;34.39;92606.78;5032026;28;20092;-82
2021/07/05 07:48:10;;;;;;;1.65;1.05;;;;;;;31.04;33.59;92600.06;5031867;28;20521;-80
2021/07/05 07:50:37;;;;;;;1.88;1.33;;;;;;;30.92;32.84;92620.34;5031224;28;20042;-82
2021/07/05 07:53:04;;;;;;;2.45;1.15;;;;;;;30.52;32.71;92621.50;5031785;28;20072;-82
2021/07/05 07:55:32;;;;;;;1.83;1.25;;;;;;;30.20;33.46;92625.06;5031971;28;20053;-82
2021/07/05 07:57:59;;;;;;;2.78;1.70;;;;;;;29.78;34.45;92620.41;5031875;28;20427;-81
2021/07/05 08:00:29;;;;;;;5.05;1.83;;;;;;;29.47;34.52;92628.03;5031792;28;20060;-83
2021/07/05 08:02:56;;;;;;;1.55;0.85;;;;;;;29.32;34.85;92627.72;5031656;28;20140;-84
2021/07/05 08:05:23;;;;;;;1.92;1.30;;;;;;;28.97;36.19;92617.81;5031532;28;20099;-84
2021/07/05 08:07:50;;;;;;;6.45;1.70;;;;;;;28.62;37.20;92623.69;5031332;28;20053;-82
2021/07/05 08:10:18;;;;;;;2.63;1.40;;;;;;;28.10;37.73;92612.88;5031553;28;20136;-81
2021/07/05 08:12:46;;;;;;;3.10;1.38;;;;;;;28.10;39.40;92626.09;5031264;28;20053;-85
2021/07/05 08:15:14;;;;;;;3.53;1.70;;;;;;;28.06;39.31;92614.66;5031387;28;20042;-84
2021/07/05 08:17:42;;;;;;;3.03;1.50;;;;;;;28.22;39.81;92618.13;5031347;28;20042;-82
2021/07/05 08:20:10;;;;;;;2.78;1.42;;;;;;;28.28;39.15;92613.41;5031224;28;20084;-82
2021/07/05 08:22:37;;;;;;;3.00;1.77;;;;;;;28.67;38.44;92618.97;5031256;28;20563;-83
2021/07/05 08:25:06;;;;;;;4.32;2.13;;;;;;;29.21;37.87;92618.75;5031171;28;20395;-82
2021/07/05 08:27:34;;;;;;;3.55;2.00;;;;;;;29.61;37.51;92617.03;5031239;28;20569;-81
2021/07/05 08:30:03;;;;;;;4.18;1.58;;;;;;;29.78;36.25;92617.75;5031258;28;20049;-83
2021/07/05 08:32:30;;;;;;;6.53;1.58;;;;;;;30.06;35.42;92616.81;5031025;28;20448;-81
2021/07/05 08:34:57;;;;;;;1.90;1.05;;;;;;;30.14;35.26;92618.53;5030868;28;20050;-82
2021/07/05 08:37:23;;;;;;;1.42;0.70;;;;;;;30.16;35.46;92618.19;5030958;28;20049;-83
2021/07/05 08:39:50;;;;;;;1.83;1.15;;;;;;;30.41;34.46;92608.06;5030927;28;20049;-83
2021/07/05 08:42:18;;;;;;;1.77;1.10;;;;;;;30.91;33.41;92618.06;5031220;28;20053;-84
2021/07/05 08:44:45;;;;;;;3.13;1.20;;;;;;;31.22;33.36;92615.47;5030980;28;20045;-83
2021/07/05 08:47:13;;;;;;;1.75;0.90;;;;;;;31.44;32.76;92601.47;5030813;28;20049;-82
2021/07/05 08:49:40;;;;;;;1.70;0.90;;;;;;;31.63;32.46;92610.44;5031043;28;20049;-82
2021/07/05 08:52:07;;;;;;;2.13;1.52;;;;;;;31.79;31.73;92604.22;5030648;28;20053;-82
2021/07/05 08:54:34;;;;;;;2.13;0.82;;;;;;;31.64;31.95;92600.56;5030986;28;20045;-85
2021/07/05 08:57:00;;;;;;;2.15;0.75;;;;;;;31.31;31.98;92595.59;5030806;28;20045;-85
2021/07/05 08:59:28;;;;;;;2.53;1.42;;;;;;;31.04;30.95;92603.50;5030850;28;20091;-83
2021/07/05 09:01:54;;;;;;;1.83;0.82;;;;;;;30.44;32.40;92607.34;5029822;28;20099;-84
2021/07/05 09:04:22;;;;;;;2.08;0.80;;;;;;;30.72;33.53;92600.31;5014357;28;20081;-84
2021/07/05 09:07:03;;;;;;;1.70;1.00;;;;;;;31.01;33.24;92590.19;5011106;28;21077;-83
2021/07/05 09:09:31;;;;;;;1.48;0.88;;;;;;;31.31;32.01;92589.50;5011118;28;20053;-81
2021/07/05 09:12:02;;;;;;;2.10;1.00;;;;;;;31.35;30.89;92584.25;5010846;28;20412;-82
2021/07/05 09:14:29;;;;;;;1.60;0.80;;;;;;;30.79;32.32;92587.91;5010762;28;20057;-85
2021/07/05 09:16:56;;;;;;;3.42;1.52;;;;;;;30.81;33.25;92584.91;5010869;28;20054;-83
2021/07/05 09:19:27;;;;;;;3.03;0.70;;;;;;;31.11;32.75;92576.31;5010969;28;20049;-82
2021/07/05 09:21:56;;;;;;;2.15;0.90;;;;;;;31.44;31.99;92574.94;5010959;28;20046;-80
2021/07/05 09:24:31;;;;;;;2.75;0.98;;;;;;;31.72;31.36;92560.53;5010913;28;20054;-80
2021/07/05 09:27:03;;;;;;;;;;;;;;;31.44;30.45;92571.50;5011397;28;20114;-82
2021/07/05 09:29:29;;;;;;;1.20;0.85;;;;;;;30.64;30.95;92567.59;5010995;28;19929;-82
2021/07/05 09:31:58;;;;;;;2.15;1.30;;;;;;;31.13;31.87;92568.75;5010929;28;20096;-84
2021/07/05 09:34:30;;;;;;;3.15;1.52;;;;;;;31.30;30.86;92561.47;5010857;28;20128;-83
2021/07/05 09:37:09;;;;;;;1.95;0.90;;;;;;;31.48;31.35;92553.75;5010744;28;20092;-82
2021/07/05 09:39:36;;;;;;;2.33;1.23;;;;;;;31.54;30.81;92551.53;5010842;28;20042;-83
2021/07/05 09:42:08;;;;;;;3.30;1.20;;;;;;;31.53;29.13;92558.75;5010640;28;20042;-90
2021/07/05 09:44:40;;;;;;;1.27;0.63;;;;;;;31.32;30.51;92556.53;5010615;28;20053;-86
2021/07/05 09:47:15;;;;;;;1.33;0.98;;;;;;;31.13;31.61;92560.81;5010619;28;20081;-82
2021/07/05 09:49:43;;;;;;;1.80;1.20;;;;;;;30.95;32.16;92555.22;5010558;28;20407;-85
2021/07/05 09:52:16;;;;;;;1.30;0.90;;;;;;;30.95;32.38;92554.47;5010454;28;20497;-83
2021/07/05 09:54:45;;;;;;;2.28;1.23;;;;;;;30.61;32.69;92544.41;5010541;28;20406;-79
2021/07/05 09:57:28;;;;;;;4.22;1.00;;;;;;;29.86;32.58;92558.56;5010701;28;20057;-84
2021/07/05 09:59:57;;;;;;;1.98;0.95;;;;;;;29.13;36.16;92550.94;5010540;28;20050;-83
2021/07/05 10:02:25;;;;;;;3.53;1.52;;;;;;;29.99;34.24;92548.59;5010230;28;20088;-81
2021/07/05 10:05:08;;;;;;;1.42;0.80;;;;;;;29.43;33.59;92547.81;5010409;28;20410;-84
2021/07/05 10:07:35;;;;;;;1.67;0.80;;;;;;;28.94;36.26;92553.16;5010509;28;20046;-82
2021/07/05 10:10:10;;;;;;;1.60;1.20;;;;;;;29.05;35.60;92556.06;5010339;28;20050;-81
2021/07/05 10:12:37;;;;;;;1.45;0.88;;;;;;;27.99;38.13;92523.59;5011111;28;20056;-87
2021/07/05 10:15:07;;;;;;;1.88;0.80;;;;;;;27.82;40.02;92545.75;5014074;28;20169;-82
2021/07/05 10:17:38;;;;;;;1.05;0.52;;;;;;;28.66;37.46;92547.94;5013884;28;20054;-81
2021/07/05 10:20:12;;;;;;;1.00;0.63;;;;;;;29.31;36.21;92541.53;5013664;28;20054;-79
2021/07/05 10:22:39;;;;;;;1.25;0.70;;;;;;;28.90;35.97;92546.25;5013713;28;20046;-81
2021/07/05 10:25:06;;;;;;;1.42;0.70;;;;;;;29.65;35.42;92557.00;5013629;28;20104;-79
2021/07/05 10:27:34;;;;;;;1.02;0.57;;;;;;;29.62;35.56;92557.69;5013740;28;20054;-86
2021/07/05 10:30:04;;;;;;;2.15;1.02;;;;;;;29.58;35.88;92552.31;5013715;28;20053;-82
2021/07/05 10:32:31;;;;;;;2.03;0.80;;;;;;;29.79;35.75;92545.94;5013642;28;20053;-84
2021/07/05 10:34:58;;;;;;;2.67;1.08;;;;;;;29.72;35.04;92546.56;5013471;28;20045;-83
2021/07/05 10:37:32;;;;;;;1.50;1.02;;;;;;;30.36;34.52;92539.47;5019715;28;20532;-82
2021/07/05 10:39:59;;;;;;;1.00;0.63;;;;;;;30.84;32.97;92531.19;5033192;28;20058;-80
2021/07/05 10:42:32;;;;;;;3.67;1.02;;;;;;;30.56;33.77;92529.59;5030475;28;20569;-82
2021/07/05 10:45:00;;;;;;;2.78;0.93;;;;;;;30.80;33.61;92523.19;5030811;28;20057;-80
2021/07/05 10:47:57;;;;;;;1.40;0.75;;;;;;;31.64;32.88;92528.91;5033188;28;20563;-85
2021/07/05 10:50:53;;;;;;;5.40;0.75;;;;;;;30.70;33.40;92530.97;4961527;28;20074;-82
2021/07/05 10:53:54;;;;;;;3.53;1.60;;;;;;;30.68;34.23;92533.94;5019538;28;20073;-84
2021/07/05 10:56:43;;;;;;;1.40;0.70;;;;;;;30.74;34.43;92535.22;5020702;28;20041;-83
2021/07/05 10:59:46;;;;;;;1.85;1.38;;;;;;;31.22;34.17;92535.91;5022966;28;20045;-80
2021/07/05 11:02:40;;;;;;;3.70;0.82;;;;;;;31.68;33.48;92527.06;5022137;28;20050;-80
2021/07/05 11:05:45;;;;;;;0.60;0.40;;;;;;;32.07;32.01;92521.47;5018165;28;20056;-84
2021/07/05 11:08:31;;;;;;;1.30;0.60;;;;;;;31.97;32.30;92524.78;5019591;28;20096;-82
2021/07/05 11:11:23;;;;;;;1.52;0.98;;;;;;;31.54;32.95;92520.47;5022766;28;20096;-82
2021/07/05 11:14:14;;;;;;;1.58;0.60;;;;;;;30.65;33.78;92532.00;5022719;28;20041;-83
2021/07/05 11:16:59;;;;;;;2.30;1.20;;;;;;;30.00;34.30;92523.66;5022161;28;20050;-81
2021/07/05 11:19:34;;;;;;;1.20;0.67;;;;;;;30.22;34.65;92526.72;5022458;28;20126;-86
2021/07/05 11:22:05;;;;;;;;;;;;;;;30.77;34.73;92523.13;5020329;28;20038;-81
2021/07/05 11:24:39;;;;;;;1.25;0.68;;;;;;;31.41;33.51;92519.91;5019803;28;19928;-82
2021/07/05 11:27:43;;;;;;;2.58;1.27;;;;;;;31.35;33.65;92513.41;5020911;28;20045;-80
2021/07/05 11:30:41;;;;;;;1.38;0.68;;;;;;;30.15;36.66;92516.75;5032243;28;20138;-83
2021/07/05 11:33:25;;;;;;;1.83;0.75;;;;;;;29.20;38.49;92527.28;5031522;28;20095;-82
2021/07/05 11:36:01;;;;;;;1.52;0.82;;;;;;;28.81;39.40;92520.75;5028001;28;20068;-81
2021/07/05 11:38:32;;;;;;;;;;;;;;;29.42;38.89;92519.81;5025210;28;21152;-82
2021/07/05 11:41:02;;;;;;;1.90;1.13;;;;;;;28.83;38.48;92522.28;5031981;28;19921;-80
2021/07/05 11:43:48;;;;;;;1.10;0.57;;;;;;;27.79;41.04;92519.28;5032078;28;20050;-80